Time;durP1;ratioP1;P1;durP2;ratioP2;P2;SDS_P1;SDS_P2;PMS_P1;PMS_P2;Temp;Humidity;BMP_temperature;BMP_pressure;BME280_temperature;BME280_humidity;BME280_pressure;Samples;Min_cycle;Max_cycle;Signal;HPM_P1;HPM_P2
2023/08/03 00:01:04;;;;;;;0.00;0.00;;;;;;;16.23;nan;98469.69;6247119;22;20691;-79
2023/08/03 00:03:30;;;;;;;0.00;0.00;;;;;;;16.19;nan;98463.31;6197326;22;20008;-79
2023/08/03 00:05:56;;;;;;;0.00;0.00;;;;;;;16.20;nan;98475.91;6248338;22;20018;-78
2023/08/03 00:08:21;;;;;;;0.00;0.00;;;;;;;16.15;nan;98473.44;6246932;22;20000;-79
2023/08/03 00:10:47;;;;;;;0.00;0.00;;;;;;;16.27;nan;98491.09;6247019;22;20418;-80
2023/08/03 00:13:12;;;;;;;0.00;0.00;;;;;;;16.11;nan;98483.56;6222173;22;20008;-79
2023/08/03 00:15:41;;;;;;;0.00;0.00;;;;;;;16.05;nan;98484.97;6247644;22;20028;-79
2023/08/03 00:18:06;;;;;;;0.00;0.00;;;;;;;15.94;nan;98487.38;6247378;22;20004;-78
2023/08/03 00:20:31;;;;;;;0.00;0.00;;;;;;;15.93;nan;98499.59;6248130;22;20414;-79
2023/08/03 00:22:59;;;;;;;0.00;0.00;;;;;;;15.86;nan;98504.88;6222659;22;20007;-76
2023/08/03 00:25:25;;;;;;;0.00;0.00;;;;;;;15.83;nan;98520.16;6221826;22;20037;-77
2023/08/03 00:27:50;;;;;;;0.00;0.00;;;;;;;15.69;nan;98503.16;6222370;22;20007;-76
2023/08/03 00:30:16;;;;;;;0.00;0.00;;;;;;;15.70;nan;98516.59;6224496;22;20419;-78
2023/08/03 00:32:41;;;;;;;0.00;0.00;;;;;;;15.67;nan;98520.03;6224084;22;20014;-77
2023/08/03 00:35:07;;;;;;;0.00;0.00;;;;;;;15.76;nan;98544.72;6250544;22;20080;-79
2023/08/03 00:37:33;;;;;;;0.00;0.00;;;;;;;15.71;nan;98531.97;6223776;22;20517;-77
2023/08/03 00:39:58;;;;;;;0.00;0.00;;;;;;;15.62;nan;98522.22;6199608;22;20000;-77
2023/08/03 00:42:26;;;;;;;0.00;0.00;;;;;;;15.74;nan;98555.28;6223587;22;20007;-77
2023/08/03 00:44:51;;;;;;;0.00;0.00;;;;;;;15.68;nan;98548.38;6224793;22;20027;-76
2023/08/03 00:47:17;;;;;;;0.00;0.00;;;;;;;15.66;nan;98550.69;6226389;22;20046;-76
2023/08/03 00:49:45;;;;;;;0.00;0.00;;;;;;;15.60;nan;98541.06;6226312;22;20026;-76
2023/08/03 00:52:13;;;;;;;0.00;0.00;;;;;;;15.56;nan;98545.66;6277662;22;20287;-77
2023/08/03 00:54:39;;;;;;;0.00;0.00;;;;;;;15.52;nan;98557.34;6199488;22;20019;-76
2023/08/03 00:57:04;;;;;;;0.00;0.00;;;;;;;15.45;nan;98551.63;6224391;22;20060;-75
2023/08/03 00:59:30;;;;;;;0.00;0.00;;;;;;;15.45;nan;98565.38;6249189;22;20705;-78
2023/08/03 01:01:58;;;;;;;0.00;0.00;;;;;;;15.47;nan;98571.34;6223947;22;20329;-77
2023/08/03 01:04:24;;;;;;;0.00;0.00;;;;;;;15.41;nan;98575.47;6249696;22;20009;-78
2023/08/03 01:06:50;;;;;;;0.00;0.00;;;;;;;15.42;nan;98579.84;6250053;22;20082;-76
2023/08/03 01:09:16;;;;;;;0.00;0.00;;;;;;;15.43;nan;98589.69;6249942;22;20446;-77
2023/08/03 01:11:42;;;;;;;0.00;0.00;;;;;;;15.47;nan;98592.59;6223240;22;20050;-77
2023/08/03 01:14:07;;;;;;;0.00;0.00;;;;;;;15.44;nan;98596.03;6225443;22;20039;-75
2023/08/03 01:16:33;;;;;;;0.00;0.00;;;;;;;15.42;nan;98606.56;6223835;22;20439;-77
2023/08/03 01:18:58;;;;;;;0.00;0.00;;;;;;;15.38;nan;98600.16;6249733;22;20561;-76
2023/08/03 01:21:27;;;;;;;0.00;0.00;;;;;;;15.40;nan;98614.38;6249030;22;20003;-76
2023/08/03 01:23:52;;;;;;;0.00;0.00;;;;;;;15.41;nan;98622.28;6249042;22;20082;-77
2023/08/03 01:26:18;;;;;;;0.00;0.00;;;;;;;15.43;nan;98625.50;6249010;22;20046;-77
2023/08/03 01:28:44;;;;;;;0.00;0.00;;;;;;;15.40;nan;98631.69;6222404;22;20138;-77
2023/08/03 01:31:18;;;;;;;0.00;0.00;;;;;;;15.38;nan;98631.25;6248416;22;20484;-75
2023/08/03 01:33:44;;;;;;;0.00;0.00;;;;;;;15.44;nan;98643.66;6249120;22;20008;-76
2023/08/03 01:36:09;;;;;;;0.00;0.00;;;;;;;15.43;nan;98642.03;6248729;22;20419;-77
2023/08/03 01:38:37;;;;;;;0.00;0.00;;;;;;;15.49;nan;98651.69;6223324;22;20022;-77
2023/08/03 01:41:05;;;;;;;0.00;0.00;;;;;;;15.43;nan;98644.78;6223247;22;20086;-76
2023/08/03 01:43:33;;;;;;;0.00;0.00;;;;;;;15.34;nan;98633.88;6225177;22;20021;-76
2023/08/03 01:46:01;;;;;;;0.00;0.00;;;;;;;15.37;nan;98646.16;6251497;22;20008;-75
2023/08/03 01:48:26;;;;;;;0.00;0.00;;;;;;;15.46;nan;98673.59;6226909;22;20000;-77
2023/08/03 01:50:57;;;;;;;0.00;0.00;;;;;;;15.23;nan;98638.22;6251921;22;20476;-76
2023/08/03 01:53:25;;;;;;;0.00;0.00;;;;;;;15.42;nan;98679.00;6201467;22;20471;-76
2023/08/03 01:55:51;;;;;;;0.00;0.00;;;;;;;15.40;nan;98674.97;6249491;22;20019;-76
2023/08/03 01:58:17;;;;;;;0.00;0.00;;;;;;;15.30;nan;98659.69;6249631;22;20000;-76
2023/08/03 02:00:45;;;;;;;0.00;0.00;;;;;;;15.35;nan;98678.75;6279150;22;20011;-78
2023/08/03 02:03:11;;;;;;;0.00;0.00;;;;;;;15.32;nan;98685.75;6256112;22;20569;-76
2023/08/03 02:05:37;;;;;;;0.00;0.00;;;;;;;15.33;nan;98692.03;6228660;22;20041;-75
2023/08/03 02:08:03;;;;;;;0.00;0.00;;;;;;;15.30;nan;98698.22;6202554;22;20012;-76
2023/08/03 02:10:28;;;;;;;0.00;0.00;;;;;;;15.25;nan;98690.19;6250152;22;20153;-76
2023/08/03 02:12:56;;;;;;;0.00;0.00;;;;;;;15.28;nan;98706.03;6196820;22;20012;-76
2023/08/03 02:15:22;;;;;;;0.00;0.00;;;;;;;15.24;nan;98711.41;6248453;22;20008;-76
2023/08/03 02:17:50;;;;;;;0.00;0.00;;;;;;;15.25;nan;98712.22;6221934;22;20430;-76
2023/08/03 02:20:16;;;;;;;0.00;0.00;;;;;;;15.25;nan;98723.25;6275219;22;20000;-76
2023/08/03 02:22:43;;;;;;;0.00;0.00;;;;;;;15.19;nan;98715.19;6222083;22;20056;-76
2023/08/03 02:25:12;;;;;;;0.00;0.00;;;;;;;15.17;nan;98722.97;6198323;22;20062;-76
2023/08/03 02:27:37;;;;;;;0.00;0.00;;;;;;;15.17;nan;98734.00;6246212;22;20011;-76
2023/08/03 02:30:03;;;;;;;0.00;0.00;;;;;;;15.13;nan;98727.56;6275297;22;20007;-76
2023/08/03 02:32:28;;;;;;;0.00;0.00;;;;;;;15.08;nan;98727.75;6246872;22;20027;-75
2023/08/03 02:34:55;;;;;;;0.00;0.00;;;;;;;15.01;nan;98722.00;6246838;22;20004;-74
2023/08/03 02:37:20;;;;;;;0.00;0.00;;;;;;;15.04;nan;98735.09;6222556;22;20015;-75
2023/08/03 02:39:45;;;;;;;0.00;0.00;;;;;;;15.03;nan;98732.69;6219633;22;20019;-75
2023/08/03 02:42:14;;;;;;;0.00;0.00;;;;;;;15.00;nan;98729.44;6223024;22;20015;-75
2023/08/03 02:44:39;;;;;;;0.00;0.00;;;;;;;15.12;nan;98747.94;6274552;22;20499;-73
2023/08/03 02:47:05;;;;;;;0.00;0.00;;;;;;;15.16;nan;98759.13;6221953;22;20000;-74
2023/08/03 02:49:35;;;;;;;0.00;0.00;;;;;;;15.12;nan;98758.16;6196060;22;19999;-76
2023/08/03 02:52:02;;;;;;;0.00;0.00;;;;;;;15.16;nan;98770.91;6246860;22;20434;-75
2023/08/03 02:54:44;;;;;;;0.00;0.00;;;;;;;15.12;nan;98775.47;6241684;22;20020;-75
2023/08/03 02:57:18;;;;;;;0.00;0.00;;;;;;;14.89;nan;98746.69;6244236;22;20012;-75
2023/08/03 02:59:43;;;;;;;;;;;;;;;15.15;nan;98796.84;6244622;22;20007;-74
2023/08/03 03:02:09;;;;;;;0.00;0.00;;;;;;;15.10;nan;98782.47;6193982;23;19946;-75
2023/08/03 03:04:38;;;;;;;0.00;0.00;;;;;;;15.13;nan;98804.63;6167019;23;20019;-74
2023/08/03 03:07:04;;;;;;;0.00;0.00;;;;;;;15.03;nan;98788.53;6191049;23;20027;-74
2023/08/03 03:09:30;;;;;;;0.00;0.00;;;;;;;15.01;nan;98796.31;6233177;23;20023;-75
2023/08/03 03:11:56;;;;;;;0.00;0.00;;;;;;;15.08;nan;98813.09;6241371;23;20367;-76
2023/08/03 03:14:24;;;;;;;0.00;0.00;;;;;;;15.02;nan;98803.41;6188816;23;20008;-74
2023/08/03 03:16:49;;;;;;;0.00;0.00;;;;;;;15.09;nan;98819.41;6215765;23;20011;-76
2023/08/03 03:19:15;;;;;;;0.00;0.00;;;;;;;15.03;nan;98821.56;6191820;23;20013;-76
2023/08/03 03:21:43;;;;;;;0.00;0.00;;;;;;;14.99;nan;98818.66;6190291;23;20082;-75
2023/08/03 03:24:09;;;;;;;0.00;0.00;;;;;;;15.04;nan;98833.34;6167015;23;20026;-75
2023/08/03 03:26:35;;;;;;;0.00;0.00;;;;;;;14.94;nan;98829.06;6191056;23;20415;-74
2023/08/03 03:29:00;;;;;;;0.00;0.00;;;;;;;14.97;nan;98839.41;6216430;23;20684;-74
2023/08/03 03:31:26;;;;;;;0.00;0.00;;;;;;;14.95;nan;98853.50;6241410;22;20004;-75
2023/08/03 03:33:51;;;;;;;0.00;0.00;;;;;;;14.95;nan;98863.69;6241633;22;20059;-75
2023/08/03 03:36:16;;;;;;;0.00;0.00;;;;;;;14.91;nan;98860.00;6190402;23;20020;-75
2023/08/03 03:38:42;;;;;;;0.00;0.00;;;;;;;14.92;nan;98867.13;6214902;23;20012;-73
2023/08/03 03:41:07;;;;;;;0.00;0.00;;;;;;;14.91;nan;98857.25;6188688;23;20304;-74
2023/08/03 03:43:35;;;;;;;0.00;0.00;;;;;;;14.94;nan;98873.09;6242731;23;20011;-75
2023/08/03 03:46:03;;;;;;;0.00;0.00;;;;;;;14.94;nan;98875.88;6243643;23;20034;-74
2023/08/03 03:48:29;;;;;;;0.00;0.00;;;;;;;14.94;nan;98878.63;6214140;23;20095;-74
2023/08/03 03:50:54;;;;;;;0.00;0.00;;;;;;;14.95;nan;98874.69;6217368;23;20039;-75
2023/08/03 03:53:25;;;;;;;0.00;0.00;;;;;;;14.85;nan;98864.91;6218546;22;20008;-74
2023/08/03 03:55:50;;;;;;;0.00;0.00;;;;;;;15.00;nan;98888.28;6245997;22;20027;-74
2023/08/03 03:58:16;;;;;;;0.00;0.00;;;;;;;15.00;nan;98888.28;6195852;22;20427;-74
2023/08/03 04:00:46;;;;;;;0.00;0.00;;;;;;;15.03;nan;98893.13;6246620;22;20003;-74
2023/08/03 04:03:12;;;;;;;0.00;0.00;;;;;;;14.99;nan;98892.97;6221199;22;20133;-74
2023/08/03 04:05:38;;;;;;;0.00;0.00;;;;;;;15.03;nan;98895.88;6225479;22;20039;-74
2023/08/03 04:08:04;;;;;;;0.00;0.00;;;;;;;15.00;nan;98907.56;6247970;22;20025;-74
2023/08/03 04:10:30;;;;;;;0.00;0.00;;;;;;;15.06;nan;98919.97;6278516;22;20070;-75
2023/08/03 04:12:55;;;;;;;0.00;0.00;;;;;;;14.97;nan;98910.97;6225675;22;20006;-74
2023/08/03 04:15:21;;;;;;;0.00;0.00;;;;;;;15.02;nan;98932.78;6226126;22;20007;-75
2023/08/03 04:17:48;;;;;;;0.00;0.00;;;;;;;14.95;nan;98924.25;6248081;22;20415;-75
2023/08/03 04:20:15;;;;;;;0.00;0.00;;;;;;;14.89;nan;98928.34;6224345;22;20015;-75
2023/08/03 04:22:41;;;;;;;0.00;0.00;;;;;;;14.88;nan;98937.72;6247324;22;20038;-74
2023/08/03 04:25:07;;;;;;;0.00;0.00;;;;;;;14.81;nan;98938.25;6247460;22;19999;-75
2023/08/03 04:27:32;;;;;;;0.00;0.00;;;;;;;14.69;nan;98922.44;6245676;22;20065;-72
2023/08/03 04:30:01;;;;;;;0.00;0.00;;;;;;;14.71;nan;98928.41;6222481;22;20008;-74
2023/08/03 04:32:27;;;;;;;0.00;0.00;;;;;;;14.69;nan;98930.69;6246643;22;20003;-75
2023/08/03 04:34:55;;;;;;;0.00;0.00;;;;;;;14.78;nan;98950.72;6220935;22;20008;-75
2023/08/03 04:37:21;;;;;;;0.00;0.00;;;;;;;14.68;nan;98931.81;6274083;22;20074;-75
2023/08/03 04:39:57;;;;;;;0.00;0.00;;;;;;;14.66;nan;98934.09;6245639;22;20014;-75
2023/08/03 04:42:25;;;;;;;0.00;0.00;;;;;;;14.69;nan;98938.13;6247348;22;20011;-75
2023/08/03 04:44:50;;;;;;;0.00;0.00;;;;;;;14.69;nan;98944.44;6273744;22;20053;-73
2023/08/03 04:47:16;;;;;;;0.00;0.00;;;;;;;14.77;nan;98962.84;6247252;22;20074;-73
2023/08/03 04:49:46;;;;;;;0.00;0.00;;;;;;;14.73;nan;98961.88;6196964;22;20027;-75
2023/08/03 04:52:12;;;;;;;0.00;0.00;;;;;;;14.73;nan;98967.41;6247973;22;20146;-75
2023/08/03 04:54:39;;;;;;;0.00;0.00;;;;;;;14.77;nan;98979.34;6223144;22;20055;-75
2023/08/03 04:57:05;;;;;;;0.00;0.00;;;;;;;14.78;nan;98980.97;6221377;22;20010;-74
2023/08/03 04:59:34;;;;;;;0.00;0.00;;;;;;;14.75;nan;98970.63;6221847;22;20011;-73
2023/08/03 05:01:59;;;;;;;0.00;0.00;;;;;;;14.76;nan;98988.78;6247444;22;20004;-75
2023/08/03 05:04:24;;;;;;;0.00;0.00;;;;;;;14.78;nan;98986.50;6197374;22;20141;-77
2023/08/03 05:06:52;;;;;;;0.00;0.00;;;;;;;14.74;nan;98991.03;6222925;22;20008;-76
2023/08/03 05:09:17;;;;;;;0.00;0.00;;;;;;;14.74;nan;98996.53;6198769;22;20008;-73
2023/08/03 05:11:47;;;;;;;0.00;0.00;;;;;;;14.75;nan;99002.88;6222689;22;20175;-76
2023/08/03 05:14:15;;;;;;;0.00;0.00;;;;;;;14.78;nan;99011.25;6221771;22;20011;-74
2023/08/03 05:16:43;;;;;;;0.00;0.00;;;;;;;14.77;nan;99001.38;6273153;22;19999;-76
2023/08/03 05:19:08;;;;;;;0.00;0.00;;;;;;;14.82;nan;99009.47;6219522;22;20035;-75
2023/08/03 05:21:36;;;;;;;0.00;0.00;;;;;;;14.82;nan;99009.47;6245846;22;20018;-74
2023/08/03 05:24:02;;;;;;;0.00;0.00;;;;;;;14.83;nan;99013.84;6246017;22;20030;-76
2023/08/03 05:26:32;;;;;;;0.00;0.00;;;;;;;14.87;nan;99015.94;6221453;22;20004;-74
2023/08/03 05:28:58;;;;;;;0.00;0.00;;;;;;;14.90;nan;99015.28;6245307;22;20003;-74
2023/08/03 05:31:33;;;;;;;;;;;;;;;;;;;;;
2023/08/03 05:34:09;;;;;;;0.00;0.00;;;;;;;14.90;nan;99015.28;6249475;22;20411;-75
2023/08/03 05:36:41;;;;;;;0.00;0.00;;;;;;;15.05;nan;99041.44;6246547;22;20007;-75
2023/08/03 05:39:13;;;;;;;0.00;0.00;;;;;;;14.93;nan;99020.13;6223239;22;20069;-76
2023/08/03 05:41:38;;;;;;;0.00;0.00;;;;;;;15.06;nan;99035.59;6195830;22;20061;-74
2023/08/03 05:44:11;;;;;;;0.00;0.00;;;;;;;15.06;nan;99041.09;6221693;22;20015;-74
2023/08/03 05:46:36;;;;;;;0.00;0.00;;;;;;;15.10;nan;99038.50;6272364;22;20004;-75
2023/08/03 05:49:09;;;;;;;0.00;0.00;;;;;;;15.07;nan;99034.47;6194382;22;20027;-73
2023/08/03 05:51:35;;;;;;;0.00;0.00;;;;;;;15.15;nan;99055.63;6246628;22;20028;-74
2023/08/03 05:54:00;;;;;;;0.00;0.00;;;;;;;15.28;nan;99069.53;6244891;22;20012;-75
2023/08/03 05:56:26;;;;;;;0.00;0.00;;;;;;;15.31;nan;99064.16;6221496;22;20035;-74
2023/08/03 05:58:52;;;;;;;0.00;0.00;;;;;;;15.37;nan;99084.06;6272108;22;20015;-74
2023/08/03 06:01:23;;;;;;;0.00;0.00;;;;;;;15.41;nan;99078.72;6220887;22;20004;-72
2023/08/03 06:03:52;;;;;;;0.00;0.00;;;;;;;15.47;nan;99083.69;6274104;22;19999;-73
2023/08/03 06:06:21;;;;;;;0.00;0.00;;;;;;;15.53;nan;99087.06;6246315;22;20003;-74
2023/08/03 06:08:53;;;;;;;0.00;0.00;;;;;;;15.60;nan;99092.06;6245834;22;20370;-73
2023/08/03 06:11:21;;;;;;;0.00;0.00;;;;;;;15.66;nan;99099.81;6245936;22;20061;-73
2023/08/03 06:13:48;;;;;;;0.00;0.00;;;;;;;15.73;nan;99096.53;6221879;22;20007;-73
2023/08/03 06:16:26;;;;;;;0.00;0.00;;;;;;;15.80;nan;99099.59;6221727;22;20271;-74
2023/08/03 06:18:54;;;;;;;0.00;0.00;;;;;;;15.90;nan;99106.66;6273536;22;20007;-72
2023/08/03 06:21:25;;;;;;;0.00;0.00;;;;;;;15.96;nan;99104.53;6274315;22;20010;-73
2023/08/03 06:23:57;;;;;;;0.00;0.00;;;;;;;16.03;nan;99110.31;6273738;22;20008;-72
2023/08/03 06:26:23;;;;;;;0.00;0.00;;;;;;;16.10;nan;99120.81;6245351;22;20294;-73
2023/08/03 06:28:53;;;;;;;0.00;0.00;;;;;;;16.10;nan;99115.31;6274198;22;20015;-73
2023/08/03 06:31:23;;;;;;;0.00;0.00;;;;;;;16.20;nan;99115.72;6270585;22;20004;-72
2023/08/03 06:33:49;;;;;;;0.00;0.00;;;;;;;16.25;nan;99120.22;6271060;22;20037;-73
2023/08/03 06:36:37;;;;;;;0.00;0.00;;;;;;;16.29;nan;99128.63;6192803;22;20004;-74
2023/08/03 06:39:03;;;;;;;0.00;0.00;;;;;;;16.41;nan;99134.22;6244305;22;20008;-72
2023/08/03 06:41:28;;;;;;;0.00;0.00;;;;;;;16.52;nan;99143.72;6193931;22;20040;-72
2023/08/03 06:43:55;;;;;;;0.00;0.00;;;;;;;16.63;nan;99149.63;6219222;22;20068;-74
2023/08/03 06:46:21;;;;;;;0.00;0.00;;;;;;;16.69;nan;99147.47;6218456;22;20049;-74
2023/08/03 06:48:47;;;;;;;0.00;0.00;;;;;;;16.69;nan;99133.66;6244814;22;20003;-73
2023/08/03 06:51:36;;;;;;;0.00;0.00;;;;;;;16.79;nan;99152.56;6272427;22;20023;-73
2023/08/03 06:54:02;;;;;;;0.00;0.00;;;;;;;16.97;nan;99161.53;6242580;22;20011;-73
2023/08/03 06:56:31;;;;;;;0.00;0.00;;;;;;;17.03;nan;99156.63;6244239;22;20023;-72
2023/08/03 06:58:57;;;;;;;0.00;0.00;;;;;;;17.11;nan;99169.50;6271222;22;20082;-71
2023/08/03 07:01:25;;;;;;;0.00;0.00;;;;;;;17.23;nan;99177.84;6271403;22;20099;-74
2023/08/03 07:03:51;;;;;;;0.00;0.00;;;;;;;17.36;nan;99181.44;6245847;22;20018;-73
2023/08/03 07:06:16;;;;;;;0.00;0.00;;;;;;;17.54;nan;99182.06;6272445;22;20568;-73
2023/08/03 07:08:41;;;;;;;0.00;0.00;;;;;;;17.67;nan;99198.63;6194447;22;20453;-73
2023/08/03 07:11:07;;;;;;;0.00;0.00;;;;;;;17.82;nan;99203.50;6245840;22;20018;-73
2023/08/03 07:13:32;;;;;;;0.00;0.00;;;;;;;17.81;nan;99185.28;6218699;22;20414;-73
2023/08/03 07:16:08;;;;;;;0.00;0.00;;;;;;;18.10;nan;99213.91;6268102;22;20027;-76
2023/08/03 07:18:34;;;;;;;0.00;0.00;;;;;;;18.25;nan;99199.41;6272149;22;20090;-72
2023/08/03 07:21:04;;;;;;;0.00;0.00;;;;;;;18.53;nan;99214.44;6246362;22;20022;-73
2023/08/03 07:23:29;;;;;;;0.00;0.00;;;;;;;18.64;nan;99219.13;6247084;22;20011;-73
2023/08/03 07:25:55;;;;;;;0.00;0.00;;;;;;;18.80;nan;99235.84;6246361;22;20004;-73
2023/08/03 07:28:21;;;;;;;0.00;0.00;;;;;;;18.82;nan;99233.53;6272296;22;20015;-72
2023/08/03 07:30:46;;;;;;;0.00;0.00;;;;;;;18.92;nan;99248.88;6219044;22;20334;-73
2023/08/03 07:33:12;;;;;;;0.00;0.00;;;;;;;18.88;nan;99247.97;6221193;22;20008;-72
2023/08/03 07:35:38;;;;;;;0.00;0.00;;;;;;;18.76;nan;99246.03;6246050;22;20008;-74
2023/08/03 07:38:03;;;;;;;0.00;0.00;;;;;;;18.73;nan;99259.75;6222655;22;20004;-72
2023/08/03 07:40:29;;;;;;;0.00;0.00;;;;;;;18.67;nan;99248.94;6248277;22;20010;-73
2023/08/03 07:43:17;;;;;;;0.00;0.00;;;;;;;18.68;nan;99255.25;6247748;22;20419;-73
2023/08/03 07:45:42;;;;;;;0.00;0.00;;;;;;;18.68;nan;99244.19;6231688;22;20097;-74
2023/08/03 07:48:08;;;;;;;0.00;0.00;;;;;;;18.85;nan;99265.25;6275425;22;20410;-73
2023/08/03 07:50:34;;;;;;;0.00;0.00;;;;;;;18.88;nan;99270.13;6222792;22;20004;-73
2023/08/03 07:52:59;;;;;;;0.00;0.00;;;;;;;19.02;nan;99276.06;6248380;22;20012;-73
2023/08/03 07:55:26;;;;;;;0.00;0.00;;;;;;;19.18;nan;99272.56;6221824;22;20023;-72
2023/08/03 07:57:52;;;;;;;0.00;0.00;;;;;;;19.23;nan;99277.88;6222858;22;20007;-72
2023/08/03 08:00:17;;;;;;;0.00;0.00;;;;;;;19.01;nan;99280.03;6220753;22;20040;-73
2023/08/03 08:02:43;;;;;;;0.00;0.00;;;;;;;19.05;nan;99284.84;6275077;22;20008;-73
2023/08/03 08:05:08;;;;;;;0.00;0.00;;;;;;;18.99;nan;99298.94;6248075;22;20007;-73
2023/08/03 08:07:36;;;;;;;0.00;0.00;;;;;;;19.01;nan;99296.66;6222438;22;20027;-73
2023/08/03 08:10:01;;;;;;;0.00;0.00;;;;;;;19.06;nan;99287.28;6221353;22;20008;-73
2023/08/03 08:12:27;;;;;;;0.00;0.00;;;;;;;19.05;nan;99291.19;6222871;22;20145;-72
2023/08/03 08:14:52;;;;;;;0.00;0.00;;;;;;;19.12;nan;99304.47;6195758;22;20047;-72
2023/08/03 08:17:34;;;;;;;0.00;0.00;;;;;;;19.15;nan;99312.06;6248852;22;20033;-73
2023/08/03 08:20:02;;;;;;;0.00;0.00;;;;;;;19.01;nan;99304.97;6248276;22;20011;-74
2023/08/03 08:22:28;;;;;;;0.00;0.00;;;;;;;19.06;nan;99300.34;6222540;22;20015;-73
2023/08/03 08:24:59;;;;;;;0.00;0.00;;;;;;;19.19;nan;99307.44;6275451;22;20079;-72
2023/08/03 08:27:32;;;;;;;0.00;0.00;;;;;;;19.22;nan;99317.03;6222383;22;20010;-74
2023/08/03 08:30:02;;;;;;;0.00;0.00;;;;;;;19.08;nan;99309.09;6224280;22;20003;-73
2023/08/03 08:32:28;;;;;;;0.00;0.00;;;;;;;19.09;nan;99322.59;6247512;22;20278;-74
2023/08/03 08:34:53;;;;;;;0.00;0.00;;;;;;;19.35;nan;99327.72;6274655;22;20082;-75
2023/08/03 08:37:19;;;;;;;0.00;0.00;;;;;;;19.48;nan;99330.44;6246658;22;20438;-73
2023/08/03 08:39:46;;;;;;;0.00;0.00;;;;;;;19.56;nan;99335.00;6222837;22;20015;-72
2023/08/03 08:42:12;;;;;;;0.00;0.00;;;;;;;19.64;nan;99331.28;6246239;22;20335;-73
2023/08/03 08:44:47;;;;;;;0.00;0.00;;;;;;;19.73;nan;99330.31;6246345;22;20022;-73
2023/08/03 08:47:13;;;;;;;0.00;0.00;;;;;;;19.84;nan;99334.22;6221852;22;20018;-71
2023/08/03 08:49:38;;;;;;;0.00;0.00;;;;;;;19.92;nan;99338.81;6222165;22;20107;-73
2023/08/03 08:52:08;;;;;;;0.00;0.00;;;;;;;20.05;nan;99332.03;6196428;22;20032;-74
2023/08/03 08:54:37;;;;;;;0.00;0.00;;;;;;;20.22;nan;99346.69;6247620;22;20026;-74
2023/08/03 08:57:03;;;;;;;0.00;0.00;;;;;;;20.35;nan;99345.44;6246386;22;19996;-74
2023/08/03 08:59:28;;;;;;;0.00;0.00;;;;;;;20.39;nan;99349.13;6222780;22;20019;-72
2023/08/03 09:01:56;;;;;;;0.00;0.00;;;;;;;20.55;nan;99363.00;6221342;22;20015;-73
2023/08/03 09:04:34;;;;;;;0.00;0.00;;;;;;;20.56;nan;99370.19;6275533;22;20012;-74
2023/08/03 09:06:59;;;;;;;0.00;0.00;;;;;;;20.53;nan;99367.31;6248971;22;20793;-72
2023/08/03 09:09:33;;;;;;;0.00;0.00;;;;;;;20.79;nan;99369.53;6222519;22;19999;-74
2023/08/03 09:11:58;;;;;;;0.00;0.00;;;;;;;20.87;nan;99367.75;6248277;22;19996;-73
2023/08/03 09:14:24;;;;;;;0.00;0.00;;;;;;;21.18;nan;99383.53;6246685;22;20007;-73
2023/08/03 09:17:00;;;;;;;0.00;0.00;;;;;;;21.33;nan;99375.53;6223184;22;20020;-73
2023/08/03 09:19:45;;;;;;;0.00;0.00;;;;;;;21.47;nan;99375.03;6223511;22;20016;-73
2023/08/03 09:22:43;;;;;;;0.00;0.00;;;;;;;21.92;nan;99385.50;6221958;22;20008;-71
2023/08/03 09:25:09;;;;;;;0.00;0.00;;;;;;;22.53;nan;99387.78;6269338;22;20038;-73
2023/08/03 09:27:38;;;;;;;0.00;0.00;;;;;;;22.99;nan;99401.69;6244747;22;20093;-73
2023/08/03 09:30:05;;;;;;;0.00;0.00;;;;;;;23.38;nan;99401.47;6219514;22;20312;-73
2023/08/03 09:32:34;;;;;;;0.00;0.00;;;;;;;23.60;nan;99407.34;6219070;22;20011;-72
2023/08/03 09:35:00;;;;;;;0.00;0.00;;;;;;;24.14;nan;99406.00;6245063;22;20012;-73
2023/08/03 09:37:36;;;;;;;0.00;0.00;;;;;;;24.79;nan;99408.59;6245488;22;20431;-73
2023/08/03 09:40:05;;;;;;;0.00;0.00;;;;;;;25.55;nan;99415.50;6244275;22;20011;-72
2023/08/03 09:42:34;;;;;;;0.00;0.00;;;;;;;26.83;nan;99419.06;6273507;22;20086;-73
2023/08/03 09:45:06;;;;;;;0.00;0.00;;;;;;;27.58;nan;99412.50;6220647;22;20016;-73
2023/08/03 09:47:34;;;;;;;0.00;0.00;;;;;;;29.18;nan;99424.34;6244237;22;20362;-72
2023/08/03 09:50:00;;;;;;;0.00;0.00;;;;;;;31.31;nan;99410.91;6221426;22;20013;-73
2023/08/03 09:52:27;;;;;;;0.00;0.00;;;;;;;32.15;nan;99428.56;6244972;22;20084;-72
2023/08/03 09:55:05;;;;;;;0.00;0.00;;;;;;;36.56;nan;99419.31;6221022;22;20098;-72
2023/08/03 09:57:39;;;;;;;0.00;0.00;;;;;;;38.81;nan;99433.66;6247243;22;20015;-73
2023/08/03 10:00:15;;;;;;;0.00;0.00;;;;;;;38.69;nan;99424.03;6221889;22;20424;-72
2023/08/03 10:02:55;;;;;;;0.00;0.00;;;;;;;37.21;nan;99428.00;6223194;22;20004;-74
2023/08/03 10:05:34;;;;;;;0.00;0.00;;;;;;;36.73;nan;99430.44;6245816;22;20057;-73
2023/08/03 10:08:14;;;;;;;0.00;0.00;;;;;;;38.00;nan;99424.47;6273180;22;20082;-72
2023/08/03 10:10:48;;;;;;;0.00;0.00;;;;;;;37.48;nan;99421.50;6220224;22;20096;-72
2023/08/03 10:13:15;;;;;;;0.00;0.00;;;;;;;35.63;nan;99427.34;6245694;22;20008;-73
2023/08/03 10:15:41;;;;;;;0.00;0.00;;;;;;;33.75;nan;99420.53;6245904;22;20403;-73
2023/08/03 10:18:07;;;;;;;0.00;0.00;;;;;;;34.44;nan;99425.69;6246580;22;20008;-73
2023/08/03 10:20:36;;;;;;;0.00;0.00;;;;;;;35.05;nan;99427.81;6244046;22;20334;-73
2023/08/03 10:23:15;;;;;;;0.00;0.00;;;;;;;35.33;nan;99431.69;6245858;22;20000;-72
2023/08/03 10:25:52;;;;;;;0.00;0.00;;;;;;;35.81;nan;99440.13;6272819;22;20006;-72
2023/08/03 10:28:18;;;;;;;0.00;0.00;;;;;;;36.34;nan;99445.78;6272859;22;20000;-72
2023/08/03 10:31:15;;;;;;;0.00;0.00;;;;;;;36.93;nan;99447.91;6215757;22;20056;-73
2023/08/03 10:33:47;;;;;;;0.00;0.00;;;;;;;38.21;nan;99453.25;6241382;22;20003;-74
2023/08/03 10:36:28;;;;;;;0.00;0.00;;;;;;;40.87;nan;99451.94;6245007;22;20007;-73
2023/08/03 10:39:00;;;;;;;0.00;0.00;;;;;;;43.48;nan;99452.91;6245121;22;20365;-74
2023/08/03 10:41:28;;;;;;;0.00;0.00;;;;;;;46.07;nan;99444.13;6238478;22;20037;-73
2023/08/03 10:44:06;;;;;;;0.00;0.00;;;;;;;47.78;nan;99448.78;6273440;22;20007;-73
2023/08/03 10:46:32;;;;;;;0.00;0.00;;;;;;;49.04;nan;99438.06;6272378;22;20003;-74
2023/08/03 10:48:58;;;;;;;0.00;0.00;;;;;;;50.18;nan;99436.22;6220935;22;20334;-74
2023/08/03 10:51:23;;;;;;;0.00;0.00;;;;;;;51.19;nan;99436.84;6195166;22;20091;-73
2023/08/03 10:53:49;;;;;;;0.00;0.00;;;;;;;51.80;nan;99442.91;6244532;22;20106;-73
2023/08/03 10:56:14;;;;;;;0.00;0.00;;;;;;;52.50;nan;99431.25;6273757;22;20086;-73
2023/08/03 10:58:47;;;;;;;0.00;0.00;;;;;;;52.69;nan;99422.06;6220338;22;20011;-73
2023/08/03 11:01:27;;;;;;;0.00;0.00;;;;;;;50.55;nan;99415.97;6221396;22;20010;-73
2023/08/03 11:03:54;;;;;;;0.00;0.00;;;;;;;50.35;nan;99418.34;6220045;22;20041;-73
2023/08/03 11:06:20;;;;;;;0.00;0.00;;;;;;;51.06;nan;99434.88;6246798;22;20031;-73
2023/08/03 11:08:46;;;;;;;0.00;0.00;;;;;;;51.89;nan;99443.66;6272524;22;20493;-74
2023/08/03 11:11:21;;;;;;;0.00;0.00;;;;;;;52.85;nan;99437.41;6221844;22;20008;-72
2023/08/03 11:13:47;;;;;;;0.00;0.00;;;;;;;51.95;nan;99436.28;6246082;22;20322;-73
2023/08/03 11:16:20;;;;;;;0.00;0.00;;;;;;;53.43;nan;99437.56;6273279;22;20022;-74
2023/08/03 11:18:46;;;;;;;0.00;0.00;;;;;;;54.68;nan;99441.88;6247190;22;20008;-73
2023/08/03 11:21:14;;;;;;;0.00;0.00;;;;;;;55.37;nan;99445.34;6224042;22;20016;-74
2023/08/03 11:23:41;;;;;;;0.00;0.00;;;;;;;55.25;nan;99442.94;6252219;22;20019;-75
2023/08/03 11:26:10;;;;;;;0.00;0.00;;;;;;;55.93;nan;99436.66;6276557;22;20007;-76
2023/08/03 11:28:43;;;;;;;0.00;0.00;;;;;;;56.08;nan;99438.59;6247871;22;20039;-74
2023/08/03 11:31:24;;;;;;;0.00;0.00;;;;;;;54.39;nan;99435.72;6245644;22;20004;-75
2023/08/03 11:33:55;;;;;;;0.00;0.00;;;;;;;54.69;nan;99445.56;6274619;22;20060;-75
2023/08/03 11:36:25;;;;;;;0.00;0.00;;;;;;;54.74;nan;99441.59;6244725;22;20018;-76
2023/08/03 11:39:03;;;;;;;0.00;0.00;;;;;;;55.14;nan;99449.31;6220748;22;20004;-74
2023/08/03 11:41:29;;;;;;;0.00;0.00;;;;;;;55.36;nan;99440.84;6222168;22;20007;-72
2023/08/03 11:43:54;;;;;;;0.00;0.00;;;;;;;52.77;nan;99451.25;6244841;22;20494;-73
2023/08/03 11:46:31;;;;;;;0.00;0.00;;;;;;;53.17;nan;99451.31;6245556;22;20024;-73
2023/08/03 11:49:02;;;;;;;0.00;0.00;;;;;;;55.35;nan;99451.00;6272313;22;20311;-74
2023/08/03 11:51:36;;;;;;;0.00;0.00;;;;;;;53.97;nan;99456.91;6245742;22;20028;-75
2023/08/03 11:54:06;;;;;;;0.00;0.00;;;;;;;50.78;nan;99440.16;6272147;22;20012;-74
2023/08/03 11:56:40;;;;;;;0.00;0.00;;;;;;;52.60;nan;99451.84;6273091;22;20010;-73